sensor_id;sensor_type;location;lat;lon;timestamp;P1;durP1;ratioP1;P2;durP2;ratioP2
4448;SDS011;2237;51.870;6.160;2023-05-02T00:00:14;17.75;;;8.18;;
4448;SDS011;2237;51.870;6.160;2023-05-02T00:02:41;20.40;;;8.32;;
4448;SDS011;2237;51.870;6.160;2023-05-02T00:05:07;16.73;;;8.20;;
4448;SDS011;2237;51.870;6.160;2023-05-02T00:07:34;18.80;;;8.57;;
4448;SDS011;2237;51.870;6.160;2023-05-02T00:10:01;19.52;;;8.55;;
4448;SDS011;2237;51.870;6.160;2023-05-02T00:12:28;18.50;;;8.65;;
4448;SDS011;2237;51.870;6.160;2023-05-02T00:14:54;19.60;;;7.85;;
4448;SDS011;2237;51.870;6.160;2023-05-02T00:17:21;17.92;;;7.05;;
4448;SDS011;2237;51.870;6.160;2023-05-02T00:19:47;17.42;;;7.93;;
4448;SDS011;2237;51.870;6.160;2023-05-02T00:22:13;14.88;;;7.65;;
4448;SDS011;2237;51.870;6.160;2023-05-02T00:24:40;18.75;;;8.63;;
4448;SDS011;2237;51.870;6.160;2023-05-02T00:27:06;12.88;;;6.18;;
4448;SDS011;2237;51.870;6.160;2023-05-02T00:29:33;17.17;;;7.57;;
4448;SDS011;2237;51.870;6.160;2023-05-02T00:31:59;15.93;;;7.15;;
4448;SDS011;2237;51.870;6.160;2023-05-02T00:34:29;15.00;;;6.78;;
4448;SDS011;2237;51.870;6.160;2023-05-02T00:36:56;14.68;;;6.82;;
4448;SDS011;2237;51.870;6.160;2023-05-02T00:39:23;16.92;;;7.65;;
4448;SDS011;2237;51.870;6.160;2023-05-02T00:41:58;17.55;;;7.25;;
4448;SDS011;2237;51.870;6.160;2023-05-02T00:44:24;15.05;;;6.80;;
4448;SDS011;2237;51.870;6.160;2023-05-02T00:46:51;12.05;;;5.68;;
4448;SDS011;2237;51.870;6.160;2023-05-02T00:49:18;13.85;;;6.65;;
4448;SDS011;2237;51.870;6.160;2023-05-02T00:51:45;14.20;;;6.38;;
4448;SDS011;2237;51.870;6.160;2023-05-02T00:54:11;13.73;;;5.82;;
4448;SDS011;2237;51.870;6.160;2023-05-02T00:56:38;13.98;;;5.03;;
4448;SDS011;2237;51.870;6.160;2023-05-02T00:59:05;12.23;;;4.95;;
4448;SDS011;2237;51.870;6.160;2023-05-02T01:13:07;12.40;;;5.53;;
4448;SDS011;2237;51.870;6.160;2023-05-02T01:15:37;9.48;;;5.20;;
4448;SDS011;2237;51.870;6.160;2023-05-02T01:18:05;10.77;;;4.60;;
4448;SDS011;2237;51.870;6.160;2023-05-02T01:20:35;9.98;;;4.43;;
4448;SDS011;2237;51.870;6.160;2023-05-02T01:23:16;11.38;;;4.75;;
4448;SDS011;2237;51.870;6.160;2023-05-02T01:31:21;13.73;;;5.57;;
4448;SDS011;2237;51.870;6.160;2023-05-02T01:33:50;12.55;;;5.38;;
4448;SDS011;2237;51.870;6.160;2023-05-02T01:36:18;14.57;;;5.75;;
4448;SDS011;2237;51.870;6.160;2023-05-02T01:38:46;12.15;;;5.90;;
4448;SDS011;2237;51.870;6.160;2023-05-02T01:41:14;13.38;;;6.05;;
4448;SDS011;2237;51.870;6.160;2023-05-02T01:43:42;11.90;;;5.68;;
4448;SDS011;2237;51.870;6.160;2023-05-02T01:46:09;14.23;;;6.18;;
4448;SDS011;2237;51.870;6.160;2023-05-02T01:48:40;11.23;;;5.70;;
4448;SDS011;2237;51.870;6.160;2023-05-02T01:51:09;19.17;;;7.45;;
4448;SDS011;2237;51.870;6.160;2023-05-02T01:53:37;13.15;;;5.60;;
4448;SDS011;2237;51.870;6.160;2023-05-02T01:56:05;12.85;;;5.72;;
4448;SDS011;2237;51.870;6.160;2023-05-02T01:58:32;14.70;;;6.28;;
4448;SDS011;2237;51.870;6.160;2023-05-02T02:01:01;14.32;;;6.97;;
4448;SDS011;2237;51.870;6.160;2023-05-02T02:03:30;12.45;;;6.63;;
4448;SDS011;2237;51.870;6.160;2023-05-02T02:05:57;14.75;;;6.25;;
4448;SDS011;2237;51.870;6.160;2023-05-02T02:08:26;15.13;;;7.03;;
4448;SDS011;2237;51.870;6.160;2023-05-02T02:10:59;12.20;;;6.45;;
4448;SDS011;2237;51.870;6.160;2023-05-02T02:13:34;15.23;;;6.90;;
4448;SDS011;2237;51.870;6.160;2023-05-02T02:16:04;16.00;;;6.57;;
4448;SDS011;2237;51.870;6.160;2023-05-02T02:18:36;13.90;;;6.60;;
4448;SDS011;2237;51.870;6.160;2023-05-02T02:21:08;15.20;;;7.28;;
4448;SDS011;2237;51.870;6.160;2023-05-02T02:23:36;14.38;;;7.22;;
4448;SDS011;2237;51.870;6.160;2023-05-02T02:26:04;13.13;;;6.72;;
4448;SDS011;2237;51.870;6.160;2023-05-02T02:28:33;17.55;;;7.05;;
4448;SDS011;2237;51.870;6.160;2023-05-02T02:30:59;14.68;;;7.07;;
4448;SDS011;2237;51.870;6.160;2023-05-02T02:33:29;15.23;;;7.57;;
4448;SDS011;2237;51.870;6.160;2023-05-02T02:36:14;15.38;;;7.93;;
4448;SDS011;2237;51.870;6.160;2023-05-02T02:38:45;18.98;;;7.30;;
4448;SDS011;2237;51.870;6.160;2023-05-02T02:41:17;20.10;;;8.18;;
4448;SDS011;2237;51.870;6.160;2023-05-02T02:46:47;16.30;;;7.28;;
4448;SDS011;2237;51.870;6.160;2023-05-02T02:54:40;14.65;;;6.18;;
4448;SDS011;2237;51.870;6.160;2023-05-02T02:57:20;13.80;;;3.53;;
4448;SDS011;2237;51.870;6.160;2023-05-02T02:59:57;12.10;;;4.28;;
4448;SDS011;2237;51.870;6.160;2023-05-02T03:02:33;12.05;;;3.22;;
4448;SDS011;2237;51.870;6.160;2023-05-02T03:05:02;11.98;;;2.58;;
4448;SDS011;2237;51.870;6.160;2023-05-02T03:07:31;10.68;;;2.30;;
4448;SDS011;2237;51.870;6.160;2023-05-02T03:10:01;6.38;;;1.60;;
4448;SDS011;2237;51.870;6.160;2023-05-02T03:12:28;6.03;;;2.20;;
4448;SDS011;2237;51.870;6.160;2023-05-02T03:15:01;5.05;;;1.83;;
4448;SDS011;2237;51.870;6.160;2023-05-02T03:17:35;6.80;;;1.27;;
4448;SDS011;2237;51.870;6.160;2023-05-02T03:20:02;8.35;;;2.05;;
4448;SDS011;2237;51.870;6.160;2023-05-02T03:22:28;6.20;;;1.75;;
4448;SDS011;2237;51.870;6.160;2023-05-02T03:24:55;8.15;;;1.40;;
4448;SDS011;2237;51.870;6.160;2023-05-02T03:27:21;8.10;;;1.27;;
4448;SDS011;2237;51.870;6.160;2023-05-02T03:29:47;2.58;;;1.30;;
4448;SDS011;2237;51.870;6.160;2023-05-02T03:32:14;5.57;;;1.42;;
4448;SDS011;2237;51.870;6.160;2023-05-02T03:34:40;6.80;;;1.38;;
4448;SDS011;2237;51.870;6.160;2023-05-02T03:37:06;5.80;;;1.38;;
4448;SDS011;2237;51.870;6.160;2023-05-02T03:39:33;2.78;;;1.20;;
4448;SDS011;2237;51.870;6.160;2023-05-02T03:41:59;5.63;;;1.40;;
4448;SDS011;2237;51.870;6.160;2023-05-02T03:44:26;9.13;;;2.47;;
4448;SDS011;2237;51.870;6.160;2023-05-02T03:46:53;6.47;;;1.00;;
4448;SDS011;2237;51.870;6.160;2023-05-02T03:49:19;5.22;;;1.67;;
4448;SDS011;2237;51.870;6.160;2023-05-02T03:51:46;7.45;;;1.90;;
4448;SDS011;2237;51.870;6.160;2023-05-02T03:54:12;5.70;;;1.60;;
4448;SDS011;2237;51.870;6.160;2023-05-02T03:56:38;5.18;;;1.05;;
4448;SDS011;2237;51.870;6.160;2023-05-02T03:59:07;6.55;;;1.23;;
4448;SDS011;2237;51.870;6.160;2023-05-02T04:01:34;5.90;;;1.20;;
4448;SDS011;2237;51.870;6.160;2023-05-02T04:04:00;5.78;;;1.70;;
4448;SDS011;2237;51.870;6.160;2023-05-02T04:06:27;9.32;;;1.80;;
4448;SDS011;2237;51.870;6.160;2023-05-02T04:08:53;4.30;;;0.93;;
4448;SDS011;2237;51.870;6.160;2023-05-02T04:11:20;4.95;;;1.15;;
4448;SDS011;2237;51.870;6.160;2023-05-02T04:13:47;6.50;;;1.95;;
4448;SDS011;2237;51.870;6.160;2023-05-02T04:16:13;5.18;;;1.88;;
4448;SDS011;2237;51.870;6.160;2023-05-02T04:18:40;5.68;;;1.10;;
4448;SDS011;2237;51.870;6.160;2023-05-02T04:21:06;8.70;;;1.15;;
4448;SDS011;2237;51.870;6.160;2023-05-02T04:23:35;3.78;;;1.20;;
4448;SDS011;2237;51.870;6.160;2023-05-02T04:26:01;7.07;;;1.10;;
4448;SDS011;2237;51.870;6.160;2023-05-02T04:28:28;3.42;;;1.08;;
4448;SDS011;2237;51.870;6.160;2023-05-02T04:30:55;1.98;;;0.77;;
4448;SDS011;2237;51.870;6.160;2023-05-02T04:33:22;5.32;;;1.50;;
4448;SDS011;2237;51.870;6.160;2023-05-02T04:35:49;6.05;;;1.20;;
4448;SDS011;2237;51.870;6.160;2023-05-02T04:38:16;8.68;;;1.85;;
4448;SDS011;2237;51.870;6.160;2023-05-02T04:40:42;6.60;;;1.20;;
4448;SDS011;2237;51.870;6.160;2023-05-02T04:43:09;4.43;;;1.10;;
4448;SDS011;2237;51.870;6.160;2023-05-02T04:45:35;9.82;;;1.42;;
4448;SDS011;2237;51.870;6.160;2023-05-02T04:48:02;9.73;;;1.20;;
4448;SDS011;2237;51.870;6.160;2023-05-02T04:50:29;6.63;;;0.98;;
4448;SDS011;2237;51.870;6.160;2023-05-02T04:52:57;2.83;;;1.20;;
4448;SDS011;2237;51.870;6.160;2023-05-02T04:55:24;8.07;;;1.52;;
4448;SDS011;2237;51.870;6.160;2023-05-02T04:57:50;3.10;;;1.02;;
4448;SDS011;2237;51.870;6.160;2023-05-02T05:00:17;6.88;;;1.38;;
4448;SDS011;2237;51.870;6.160;2023-05-02T05:02:43;5.05;;;1.20;;
4448;SDS011;2237;51.870;6.160;2023-05-02T05:05:10;8.93;;;1.10;;
4448;SDS011;2237;51.870;6.160;2023-05-02T05:07:36;3.55;;;0.88;;
4448;SDS011;2237;51.870;6.160;2023-05-02T05:10:02;8.35;;;1.23;;
4448;SDS011;2237;51.870;6.160;2023-05-02T05:12:29;12.98;;;1.55;;
4448;SDS011;2237;51.870;6.160;2023-05-02T05:14:55;13.00;;;0.85;;
4448;SDS011;2237;51.870;6.160;2023-05-02T05:17:22;6.05;;;1.45;;
4448;SDS011;2237;51.870;6.160;2023-05-02T05:19:48;8.85;;;1.60;;
4448;SDS011;2237;51.870;6.160;2023-05-02T05:22:15;8.07;;;2.35;;
4448;SDS011;2237;51.870;6.160;2023-05-02T05:24:41;6.53;;;1.80;;
4448;SDS011;2237;51.870;6.160;2023-05-02T05:27:07;6.88;;;1.38;;
4448;SDS011;2237;51.870;6.160;2023-05-02T05:29:35;8.25;;;1.42;;
4448;SDS011;2237;51.870;6.160;2023-05-02T05:32:01;10.45;;;1.83;;
4448;SDS011;2237;51.870;6.160;2023-05-02T05:34:27;5.65;;;1.10;;
4448;SDS011;2237;51.870;6.160;2023-05-02T05:39:29;7.88;;;1.90;;
4448;SDS011;2237;51.870;6.160;2023-05-02T05:41:55;4.22;;;0.95;;
4448;SDS011;2237;51.870;6.160;2023-05-02T05:44:22;6.72;;;1.35;;
4448;SDS011;2237;51.870;6.160;2023-05-02T05:46:50;5.75;;;1.10;;
4448;SDS011;2237;51.870;6.160;2023-05-02T05:49:16;11.38;;;1.40;;
4448;SDS011;2237;51.870;6.160;2023-05-02T05:51:43;11.27;;;1.75;;
4448;SDS011;2237;51.870;6.160;2023-05-02T05:54:09;8.45;;;0.75;;
4448;SDS011;2237;51.870;6.160;2023-05-02T05:56:36;5.25;;;2.13;;
4448;SDS011;2237;51.870;6.160;2023-05-02T05:59:02;6.10;;;1.75;;
4448;SDS011;2237;51.870;6.160;2023-05-02T06:01:29;13.10;;;2.50;;
4448;SDS011;2237;51.870;6.160;2023-05-02T06:03:55;8.45;;;1.50;;
4448;SDS011;2237;51.870;6.160;2023-05-02T06:06:22;7.60;;;1.75;;
4448;SDS011;2237;51.870;6.160;2023-05-02T06:08:48;7.70;;;1.48;;
4448;SDS011;2237;51.870;6.160;2023-05-02T06:11:14;9.38;;;1.83;;
4448;SDS011;2237;51.870;6.160;2023-05-02T06:13:41;8.27;;;1.70;;
4448;SDS011;2237;51.870;6.160;2023-05-02T06:16:07;11.75;;;2.10;;
4448;SDS011;2237;51.870;6.160;2023-05-02T06:18:34;6.82;;;1.65;;
4448;SDS011;2237;51.870;6.160;2023-05-02T06:21:04;6.55;;;1.45;;
4448;SDS011;2237;51.870;6.160;2023-05-02T06:23:31;8.82;;;2.13;;
4448;SDS011;2237;51.870;6.160;2023-05-02T06:25:58;11.75;;;1.70;;
4448;SDS011;2237;51.870;6.160;2023-05-02T06:28:26;10.75;;;1.70;;
4448;SDS011;2237;51.870;6.160;2023-05-02T06:30:59;3.53;;;1.00;;
4448;SDS011;2237;51.870;6.160;2023-05-02T06:33:27;5.38;;;1.02;;
4448;SDS011;2237;51.870;6.160;2023-05-02T06:35:54;5.85;;;2.05;;
4448;SDS011;2237;51.870;6.160;2023-05-02T06:38:21;5.63;;;1.48;;
4448;SDS011;2237;51.870;6.160;2023-05-02T06:40:48;4.30;;;1.05;;
4448;SDS011;2237;51.870;6.160;2023-05-02T06:43:15;13.98;;;1.40;;
4448;SDS011;2237;51.870;6.160;2023-05-02T06:45:41;8.77;;;1.55;;
4448;SDS011;2237;51.870;6.160;2023-05-02T06:48:08;9.13;;;1.70;;
4448;SDS011;2237;51.870;6.160;2023-05-02T06:50:35;9.43;;;1.40;;
4448;SDS011;2237;51.870;6.160;2023-05-02T06:53:02;10.18;;;1.48;;
4448;SDS011;2237;51.870;6.160;2023-05-02T06:55:30;6.93;;;1.05;;
4448;SDS011;2237;51.870;6.160;2023-05-02T06:57:56;10.32;;;1.50;;
4448;SDS011;2237;51.870;6.160;2023-05-02T07:00:23;8.65;;;1.90;;
4448;SDS011;2237;51.870;6.160;2023-05-02T07:02:49;6.05;;;1.88;;
4448;SDS011;2237;51.870;6.160;2023-05-02T07:05:16;7.57;;;1.80;;
4448;SDS011;2237;51.870;6.160;2023-05-02T07:07:42;11.93;;;1.92;;
4448;SDS011;2237;51.870;6.160;2023-05-02T07:10:09;7.68;;;2.15;;
4448;SDS011;2237;51.870;6.160;2023-05-02T07:12:37;10.63;;;2.33;;
4448;SDS011;2237;51.870;6.160;2023-05-02T07:15:05;7.30;;;2.13;;
4448;SDS011;2237;51.870;6.160;2023-05-02T07:17:32;9.73;;;1.88;;
4448;SDS011;2237;51.870;6.160;2023-05-02T07:19:59;11.45;;;2.05;;
4448;SDS011;2237;51.870;6.160;2023-05-02T07:22:25;7.80;;;1.85;;
4448;SDS011;2237;51.870;6.160;2023-05-02T07:24:59;14.23;;;3.17;;
4448;SDS011;2237;51.870;6.160;2023-05-02T07:27:27;13.60;;;2.17;;
4448;SDS011;2237;51.870;6.160;2023-05-02T07:29:54;6.82;;;1.48;;
4448;SDS011;2237;51.870;6.160;2023-05-02T07:32:20;7.47;;;1.55;;
4448;SDS011;2237;51.870;6.160;2023-05-02T07:34:47;7.80;;;1.73;;
4448;SDS011;2237;51.870;6.160;2023-05-02T07:37:14;5.32;;;1.45;;
4448;SDS011;2237;51.870;6.160;2023-05-02T07:39:40;6.20;;;1.50;;
4448;SDS011;2237;51.870;6.160;2023-05-02T07:42:07;4.35;;;1.33;;
4448;SDS011;2237;51.870;6.160;2023-05-02T07:44:33;9.05;;;1.52;;
4448;SDS011;2237;51.870;6.160;2023-05-02T07:47:01;8.38;;;1.67;;
4448;SDS011;2237;51.870;6.160;2023-05-02T07:49:27;7.35;;;1.40;;
4448;SDS011;2237;51.870;6.160;2023-05-02T07:51:54;8.45;;;1.33;;
4448;SDS011;2237;51.870;6.160;2023-05-02T07:54:21;4.28;;;0.98;;
4448;SDS011;2237;51.870;6.160;2023-05-02T07:56:47;11.13;;;2.58;;
4448;SDS011;2237;51.870;6.160;2023-05-02T07:59:14;4.35;;;1.13;;
4448;SDS011;2237;51.870;6.160;2023-05-02T08:01:40;6.75;;;1.65;;
4448;SDS011;2237;51.870;6.160;2023-05-02T08:04:07;7.53;;;1.60;;
4448;SDS011;2237;51.870;6.160;2023-05-02T08:06:36;4.88;;;1.00;;
4448;SDS011;2237;51.870;6.160;2023-05-02T08:09:03;5.32;;;1.10;;
4448;SDS011;2237;51.870;6.160;2023-05-02T08:11:29;14.57;;;1.40;;
4448;SDS011;2237;51.870;6.160;2023-05-02T08:13:55;10.63;;;2.05;;
4448;SDS011;2237;51.870;6.160;2023-05-02T08:16:22;4.80;;;1.00;;
4448;SDS011;2237;51.870;6.160;2023-05-02T08:18:48;5.95;;;1.65;;
4448;SDS011;2237;51.870;6.160;2023-05-02T08:21:14;6.72;;;1.27;;
4448;SDS011;2237;51.870;6.160;2023-05-02T08:23:41;5.57;;;1.25;;
4448;SDS011;2237;51.870;6.160;2023-05-02T08:26:07;4.88;;;1.27;;
4448;SDS011;2237;51.870;6.160;2023-05-02T08:28:34;2.83;;;1.10;;
4448;SDS011;2237;51.870;6.160;2023-05-02T08:31:00;5.13;;;1.17;;
4448;SDS011;2237;51.870;6.160;2023-05-02T08:33:26;6.72;;;1.40;;
4448;SDS011;2237;51.870;6.160;2023-05-02T08:35:53;5.22;;;0.90;;
4448;SDS011;2237;51.870;6.160;2023-05-02T08:38:19;6.30;;;1.10;;
4448;SDS011;2237;51.870;6.160;2023-05-02T08:40:45;5.53;;;0.90;;
4448;SDS011;2237;51.870;6.160;2023-05-02T08:43:12;5.78;;;1.15;;
4448;SDS011;2237;51.870;6.160;2023-05-02T08:45:42;4.90;;;0.82;;
4448;SDS011;2237;51.870;6.160;2023-05-02T08:48:10;3.58;;;0.77;;
4448;SDS011;2237;51.870;6.160;2023-05-02T08:50:39;7.68;;;1.08;;
4448;SDS011;2237;51.870;6.160;2023-05-02T08:53:08;6.25;;;1.00;;
4448;SDS011;2237;51.870;6.160;2023-05-02T08:55:36;2.53;;;0.75;;
4448;SDS011;2237;51.870;6.160;2023-05-02T08:58:08;4.38;;;1.00;;
4448;SDS011;2237;51.870;6.160;2023-05-02T09:00:38;5.07;;;0.85;;
4448;SDS011;2237;51.870;6.160;2023-05-02T09:06:01;3.80;;;0.82;;
4448;SDS011;2237;51.870;6.160;2023-05-02T09:08:36;5.05;;;1.20;;
4448;SDS011;2237;51.870;6.160;2023-05-02T09:11:02;2.90;;;0.73;;
4448;SDS011;2237;51.870;6.160;2023-05-02T09:13:31;3.45;;;1.00;;
4448;SDS011;2237;51.870;6.160;2023-05-02T09:16:05;4.68;;;1.10;;
4448;SDS011;2237;51.870;6.160;2023-05-02T09:18:36;4.53;;;0.93;;
4448;SDS011;2237;51.870;6.160;2023-05-02T09:21:04;1.65;;;0.55;;
4448;SDS011;2237;51.870;6.160;2023-05-02T09:23:34;4.38;;;1.00;;
4448;SDS011;2237;51.870;6.160;2023-05-02T09:26:22;5.75;;;1.05;;
4448;SDS011;2237;51.870;6.160;2023-05-02T09:28:52;5.22;;;1.10;;
4448;SDS011;2237;51.870;6.160;2023-05-02T09:34:14;3.28;;;1.10;;
4448;SDS011;2237;51.870;6.160;2023-05-02T09:36:42;5.35;;;1.25;;
4448;SDS011;2237;51.870;6.160;2023-05-02T09:39:09;1.98;;;0.80;;
4448;SDS011;2237;51.870;6.160;2023-05-02T09:41:39;4.90;;;1.85;;
4448;SDS011;2237;51.870;6.160;2023-05-02T09:44:10;7.72;;;1.33;;
4448;SDS011;2237;51.870;6.160;2023-05-02T09:46:43;6.00;;;1.15;;
4448;SDS011;2237;51.870;6.160;2023-05-02T09:49:17;5.03;;;1.13;;
4448;SDS011;2237;51.870;6.160;2023-05-02T09:51:47;4.50;;;1.40;;
4448;SDS011;2237;51.870;6.160;2023-05-02T09:54:32;3.15;;;0.88;;
4448;SDS011;2237;51.870;6.160;2023-05-02T09:57:02;6.47;;;1.20;;
4448;SDS011;2237;51.870;6.160;2023-05-02T09:59:29;5.43;;;1.15;;
4448;SDS011;2237;51.870;6.160;2023-05-02T10:01:59;4.68;;;1.20;;
4448;SDS011;2237;51.870;6.160;2023-05-02T10:04:28;5.10;;;1.27;;
4448;SDS011;2237;51.870;6.160;2023-05-02T10:06:55;5.30;;;1.23;;
4448;SDS011;2237;51.870;6.160;2023-05-02T10:09:22;5.60;;;1.30;;
4448;SDS011;2237;51.870;6.160;2023-05-02T10:11:51;4.95;;;1.00;;
4448;SDS011;2237;51.870;6.160;2023-05-02T10:14:19;6.20;;;1.30;;
4448;SDS011;2237;51.870;6.160;2023-05-02T10:19:56;5.80;;;1.33;;
4448;SDS011;2237;51.870;6.160;2023-05-02T10:22:25;5.47;;;1.20;;
4448;SDS011;2237;51.870;6.160;2023-05-02T10:24:52;4.80;;;1.00;;
4448;SDS011;2237;51.870;6.160;2023-05-02T10:27:19;5.38;;;1.35;;
4448;SDS011;2237;51.870;6.160;2023-05-02T10:29:45;4.40;;;0.98;;
4448;SDS011;2237;51.870;6.160;2023-05-02T10:32:12;7.93;;;1.13;;
4448;SDS011;2237;51.870;6.160;2023-05-02T10:34:40;4.18;;;1.10;;
4448;SDS011;2237;51.870;6.160;2023-05-02T10:37:07;5.32;;;1.38;;
4448;SDS011;2237;51.870;6.160;2023-05-02T10:39:33;7.80;;;1.13;;
4448;SDS011;2237;51.870;6.160;2023-05-02T10:42:01;4.53;;;1.38;;
4448;SDS011;2237;51.870;6.160;2023-05-02T10:44:36;4.13;;;1.20;;
4448;SDS011;2237;51.870;6.160;2023-05-02T10:50:01;2.97;;;1.00;;
4448;SDS011;2237;51.870;6.160;2023-05-02T11:00:24;6.47;;;1.30;;
4448;SDS011;2237;51.870;6.160;2023-05-02T11:02:51;2.78;;;1.00;;
4448;SDS011;2237;51.870;6.160;2023-05-02T11:05:18;3.97;;;1.30;;
4448;SDS011;2237;51.870;6.160;2023-05-02T11:07:44;4.40;;;1.40;;
4448;SDS011;2237;51.870;6.160;2023-05-02T11:10:33;5.57;;;1.40;;
4448;SDS011;2237;51.870;6.160;2023-05-02T11:12:57;3.10;;;0.95;;
4448;SDS011;2237;51.870;6.160;2023-05-02T11:20:27;6.03;;;1.50;;
4448;SDS011;2237;51.870;6.160;2023-05-02T11:22:55;4.20;;;1.40;;
4448;SDS011;2237;51.870;6.160;2023-05-02T11:25:30;4.40;;;1.48;;
4448;SDS011;2237;51.870;6.160;2023-05-02T11:28:00;8.85;;;1.52;;
4448;SDS011;2237;51.870;6.160;2023-05-02T11:30:41;4.60;;;1.60;;
4448;SDS011;2237;51.870;6.160;2023-05-02T11:33:10;10.40;;;1.40;;
4448;SDS011;2237;51.870;6.160;2023-05-02T11:35:40;5.78;;;1.48;;
4448;SDS011;2237;51.870;6.160;2023-05-02T11:38:09;9.02;;;1.80;;
4448;SDS011;2237;51.870;6.160;2023-05-02T11:40:37;5.75;;;1.40;;
4448;SDS011;2237;51.870;6.160;2023-05-02T11:43:14;3.88;;;1.50;;
4448;SDS011;2237;51.870;6.160;2023-05-02T11:45:41;6.07;;;1.73;;
4448;SDS011;2237;51.870;6.160;2023-05-02T11:48:09;5.15;;;1.50;;
4448;SDS011;2237;51.870;6.160;2023-05-02T11:50:45;3.53;;;1.33;;
4448;SDS011;2237;51.870;6.160;2023-05-02T11:53:20;4.72;;;1.60;;
4448;SDS011;2237;51.870;6.160;2023-05-02T11:55:49;5.93;;;1.90;;
4448;SDS011;2237;51.870;6.160;2023-05-02T11:58:17;7.15;;;1.60;;
4448;SDS011;2237;51.870;6.160;2023-05-02T12:00:49;5.97;;;1.65;;
4448;SDS011;2237;51.870;6.160;2023-05-02T12:03:28;4.38;;;1.23;;
4448;SDS011;2237;51.870;6.160;2023-05-02T12:05:57;9.02;;;1.80;;
4448;SDS011;2237;51.870;6.160;2023-05-02T12:08:38;4.97;;;1.33;;
4448;SDS011;2237;51.870;6.160;2023-05-02T12:11:05;5.55;;;1.42;;
4448;SDS011;2237;51.870;6.160;2023-05-02T12:13:32;4.90;;;1.60;;
4448;SDS011;2237;51.870;6.160;2023-05-02T12:15:59;6.50;;;1.90;;
4448;SDS011;2237;51.870;6.160;2023-05-02T12:18:26;5.03;;;1.30;;
4448;SDS011;2237;51.870;6.160;2023-05-02T12:20:55;7.22;;;1.80;;
4448;SDS011;2237;51.870;6.160;2023-05-02T12:23:23;7.15;;;1.60;;
4448;SDS011;2237;51.870;6.160;2023-05-02T12:25:51;6.18;;;1.83;;
4448;SDS011;2237;51.870;6.160;2023-05-02T12:28:17;10.80;;;1.83;;
4448;SDS011;2237;51.870;6.160;2023-05-02T12:30:46;8.13;;;1.67;;
4448;SDS011;2237;51.870;6.160;2023-05-02T12:33:13;4.97;;;1.63;;
4448;SDS011;2237;51.870;6.160;2023-05-02T12:35:42;5.45;;;1.60;;
4448;SDS011;2237;51.870;6.160;2023-05-02T12:38:38;4.45;;;1.55;;
4448;SDS011;2237;51.870;6.160;2023-05-02T12:41:06;4.38;;;1.50;;
4448;SDS011;2237;51.870;6.160;2023-05-02T12:43:48;4.43;;;1.70;;
4448;SDS011;2237;51.870;6.160;2023-05-02T12:46:16;5.15;;;1.67;;
4448;SDS011;2237;51.870;6.160;2023-05-02T12:48:42;9.50;;;2.00;;
4448;SDS011;2237;51.870;6.160;2023-05-02T12:51:21;3.85;;;1.90;;
4448;SDS011;2237;51.870;6.160;2023-05-02T12:53:49;6.20;;;1.90;;
4448;SDS011;2237;51.870;6.160;2023-05-02T12:56:15;7.72;;;1.95;;
4448;SDS011;2237;51.870;6.160;2023-05-02T12:58:44;6.75;;;1.70;;
4448;SDS011;2237;51.870;6.160;2023-05-02T13:01:12;6.18;;;1.85;;
4448;SDS011;2237;51.870;6.160;2023-05-02T13:03:40;8.18;;;2.03;;
4448;SDS011;2237;51.870;6.160;2023-05-02T13:06:08;7.82;;;1.70;;
4448;SDS011;2237;51.870;6.160;2023-05-02T13:08:35;6.10;;;1.88;;
4448;SDS011;2237;51.870;6.160;2023-05-02T13:11:02;7.93;;;1.83;;
4448;SDS011;2237;51.870;6.160;2023-05-02T13:13:29;6.40;;;1.63;;
4448;SDS011;2237;51.870;6.160;2023-05-02T13:15:56;8.07;;;2.10;;
4448;SDS011;2237;51.870;6.160;2023-05-02T13:18:22;8.13;;;2.10;;
4448;SDS011;2237;51.870;6.160;2023-05-02T13:20:49;3.88;;;1.63;;
4448;SDS011;2237;51.870;6.160;2023-05-02T13:23:15;4.95;;;1.77;;
4448;SDS011;2237;51.870;6.160;2023-05-02T13:25:42;5.45;;;1.75;;
4448;SDS011;2237;51.870;6.160;2023-05-02T13:28:08;3.95;;;2.15;;
4448;SDS011;2237;51.870;6.160;2023-05-02T13:30:35;4.28;;;1.80;;
4448;SDS011;2237;51.870;6.160;2023-05-02T13:33:01;8.38;;;1.80;;
4448;SDS011;2237;51.870;6.160;2023-05-02T13:35:28;5.28;;;1.80;;
4448;SDS011;2237;51.870;6.160;2023-05-02T13:37:54;4.70;;;1.92;;
4448;SDS011;2237;51.870;6.160;2023-05-02T13:40:20;5.82;;;2.00;;
4448;SDS011;2237;51.870;6.160;2023-05-02T13:42:47;7.20;;;2.00;;
4448;SDS011;2237;51.870;6.160;2023-05-02T13:45:13;5.28;;;1.70;;
4448;SDS011;2237;51.870;6.160;2023-05-02T13:47:41;5.60;;;1.60;;
4448;SDS011;2237;51.870;6.160;2023-05-02T13:50:08;6.40;;;1.70;;
4448;SDS011;2237;51.870;6.160;2023-05-02T13:52:34;5.18;;;1.88;;
4448;SDS011;2237;51.870;6.160;2023-05-02T13:55:01;7.47;;;1.92;;
4448;SDS011;2237;51.870;6.160;2023-05-02T13:57:27;9.52;;;2.38;;
4448;SDS011;2237;51.870;6.160;2023-05-02T13:59:53;7.88;;;2.30;;
4448;SDS011;2237;51.870;6.160;2023-05-02T14:02:20;5.93;;;2.10;;
4448;SDS011;2237;51.870;6.160;2023-05-02T14:04:47;9.30;;;2.03;;
4448;SDS011;2237;51.870;6.160;2023-05-02T14:07:13;5.47;;;2.08;;
4448;SDS011;2237;51.870;6.160;2023-05-02T14:09:40;5.22;;;2.38;;
4448;SDS011;2237;51.870;6.160;2023-05-02T14:12:06;4.85;;;1.85;;
4448;SDS011;2237;51.870;6.160;2023-05-02T14:14:33;6.25;;;2.20;;
4448;SDS011;2237;51.870;6.160;2023-05-02T14:17:02;5.00;;;2.28;;
4448;SDS011;2237;51.870;6.160;2023-05-02T14:19:30;9.18;;;2.45;;
4448;SDS011;2237;51.870;6.160;2023-05-02T14:21:56;5.88;;;4.78;;
4448;SDS011;2237;51.870;6.160;2023-05-02T14:24:23;7.45;;;2.50;;
4448;SDS011;2237;51.870;6.160;2023-05-02T14:26:49;5.32;;;2.72;;
4448;SDS011;2237;51.870;6.160;2023-05-02T14:29:16;6.47;;;1.90;;
4448;SDS011;2237;51.870;6.160;2023-05-02T14:31:43;4.18;;;1.92;;
4448;SDS011;2237;51.870;6.160;2023-05-02T14:34:11;2.95;;;1.60;;
4448;SDS011;2237;51.870;6.160;2023-05-02T14:36:38;9.95;;;1.73;;
4448;SDS011;2237;51.870;6.160;2023-05-02T14:39:04;3.20;;;1.70;;
4448;SDS011;2237;51.870;6.160;2023-05-02T14:41:30;3.78;;;1.90;;
4448;SDS011;2237;51.870;6.160;2023-05-02T14:43:57;6.53;;;1.80;;
4448;SDS011;2237;51.870;6.160;2023-05-02T14:46:23;6.55;;;2.13;;
4448;SDS011;2237;51.870;6.160;2023-05-02T14:48:50;5.57;;;2.13;;
4448;SDS011;2237;51.870;6.160;2023-05-02T14:51:16;3.58;;;1.73;;
4448;SDS011;2237;51.870;6.160;2023-05-02T14:53:42;5.18;;;1.80;;
4448;SDS011;2237;51.870;6.160;2023-05-02T14:56:12;7.25;;;2.15;;
4448;SDS011;2237;51.870;6.160;2023-05-02T14:58:40;7.32;;;2.05;;
4448;SDS011;2237;51.870;6.160;2023-05-02T15:01:13;4.82;;;1.90;;
4448;SDS011;2237;51.870;6.160;2023-05-02T15:03:41;7.63;;;1.90;;
4448;SDS011;2237;51.870;6.160;2023-05-02T15:06:28;4.28;;;1.60;;
4448;SDS011;2237;51.870;6.160;2023-05-02T15:08:56;8.13;;;1.73;;
4448;SDS011;2237;51.870;6.160;2023-05-02T15:11:23;5.93;;;1.70;;
4448;SDS011;2237;51.870;6.160;2023-05-02T15:13:49;8.13;;;1.75;;
4448;SDS011;2237;51.870;6.160;2023-05-02T15:16:15;6.25;;;1.58;;
4448;SDS011;2237;51.870;6.160;2023-05-02T15:18:42;5.28;;;1.48;;
4448;SDS011;2237;51.870;6.160;2023-05-02T15:21:09;3.90;;;1.80;;
4448;SDS011;2237;51.870;6.160;2023-05-02T15:23:35;4.10;;;2.20;;
4448;SDS011;2237;51.870;6.160;2023-05-02T15:26:02;6.18;;;1.77;;
4448;SDS011;2237;51.870;6.160;2023-05-02T15:28:28;4.90;;;1.63;;
4448;SDS011;2237;51.870;6.160;2023-05-02T15:30:56;4.97;;;1.80;;
4448;SDS011;2237;51.870;6.160;2023-05-02T15:33:22;4.30;;;1.70;;
4448;SDS011;2237;51.870;6.160;2023-05-02T15:35:52;3.10;;;1.52;;
4448;SDS011;2237;51.870;6.160;2023-05-02T15:38:20;3.92;;;1.27;;
4448;SDS011;2237;51.870;6.160;2023-05-02T15:40:52;4.38;;;1.80;;
4448;SDS011;2237;51.870;6.160;2023-05-02T15:43:19;4.47;;;1.75;;
4448;SDS011;2237;51.870;6.160;2023-05-02T15:48:22;5.45;;;1.75;;
4448;SDS011;2237;51.870;6.160;2023-05-02T15:50:51;3.72;;;2.20;;
4448;SDS011;2237;51.870;6.160;2023-05-02T15:53:18;3.30;;;1.27;;
4448;SDS011;2237;51.870;6.160;2023-05-02T15:55:48;5.10;;;1.38;;
4448;SDS011;2237;51.870;6.160;2023-05-02T16:00:45;2.50;;;1.25;;
4448;SDS011;2237;51.870;6.160;2023-05-02T16:03:13;6.43;;;1.33;;
4448;SDS011;2237;51.870;6.160;2023-05-02T16:05:40;3.00;;;1.30;;
4448;SDS011;2237;51.870;6.160;2023-05-02T16:08:07;4.85;;;1.50;;
4448;SDS011;2237;51.870;6.160;2023-05-02T16:10:33;2.78;;;1.35;;
4448;SDS011;2237;51.870;6.160;2023-05-02T16:13:01;2.97;;;1.30;;
4448;SDS011;2237;51.870;6.160;2023-05-02T16:15:27;4.25;;;1.20;;